sensor_id;sensor_type;location;lat;lon;timestamp;P1;durP1;ratioP1;P2;durP2;ratioP2
50213;SDS011;36103;54.176;12.070;2022-12-10T00:00:55;4.17;;;3.30;;
50213;SDS011;36103;54.176;12.070;2022-12-10T00:02:03;4.87;;;3.30;;
50213;SDS011;36103;54.176;12.070;2022-12-10T00:03:05;4.63;;;3.00;;
50213;SDS011;36103;54.176;12.070;2022-12-10T00:04:05;4.40;;;2.77;;
50213;SDS011;36103;54.176;12.070;2022-12-10T00:05:07;4.47;;;2.73;;
50213;SDS011;36103;54.176;12.070;2022-12-10T00:06:10;5.63;;;2.80;;
50213;SDS011;36103;54.176;12.070;2022-12-10T00:07:13;6.70;;;3.30;;
50213;SDS011;36103;54.176;12.070;2022-12-10T00:08:14;4.13;;;2.90;;
50213;SDS011;36103;54.176;12.070;2022-12-10T00:09:16;4.80;;;3.07;;
50213;SDS011;36103;54.176;12.070;2022-12-10T00:10:17;4.33;;;2.97;;
50213;SDS011;36103;54.176;12.070;2022-12-10T00:11:21;4.80;;;2.80;;
50213;SDS011;36103;54.176;12.070;2022-12-10T00:12:22;5.00;;;3.03;;
50213;SDS011;36103;54.176;12.070;2022-12-10T00:13:23;4.60;;;3.23;;
50213;SDS011;36103;54.176;12.070;2022-12-10T00:14:24;5.00;;;3.30;;
50213;SDS011;36103;54.176;12.070;2022-12-10T00:15:25;3.80;;;2.87;;
50213;SDS011;36103;54.176;12.070;2022-12-10T00:16:26;3.27;;;2.43;;
50213;SDS011;36103;54.176;12.070;2022-12-10T00:17:28;4.37;;;3.10;;
50213;SDS011;36103;54.176;12.070;2022-12-10T00:18:29;5.37;;;2.77;;
50213;SDS011;36103;54.176;12.070;2022-12-10T00:19:30;3.73;;;2.70;;
50213;SDS011;36103;54.176;12.070;2022-12-10T00:20:32;4.70;;;3.03;;
50213;SDS011;36103;54.176;12.070;2022-12-10T00:21:32;4.43;;;2.70;;
50213;SDS011;36103;54.176;12.070;2022-12-10T00:22:35;4.87;;;3.17;;
50213;SDS011;36103;54.176;12.070;2022-12-10T00:23:37;4.57;;;2.97;;
50213;SDS011;36103;54.176;12.070;2022-12-10T00:24:38;5.43;;;3.03;;
50213;SDS011;36103;54.176;12.070;2022-12-10T00:25:40;3.37;;;2.60;;
50213;SDS011;36103;54.176;12.070;2022-12-10T00:26:42;4.00;;;2.50;;
50213;SDS011;36103;54.176;12.070;2022-12-10T00:27:45;3.47;;;2.33;;
50213;SDS011;36103;54.176;12.070;2022-12-10T00:28:46;4.80;;;2.73;;
50213;SDS011;36103;54.176;12.070;2022-12-10T00:29:48;3.93;;;2.67;;
50213;SDS011;36103;54.176;12.070;2022-12-10T00:30:50;4.67;;;2.80;;
50213;SDS011;36103;54.176;12.070;2022-12-10T00:31:50;4.67;;;3.00;;
50213;SDS011;36103;54.176;12.070;2022-12-10T00:32:52;3.93;;;2.90;;
50213;SDS011;36103;54.176;12.070;2022-12-10T00:33:52;3.87;;;2.60;;
50213;SDS011;36103;54.176;12.070;2022-12-10T00:34:54;4.90;;;3.27;;
50213;SDS011;36103;54.176;12.070;2022-12-10T00:35:55;4.33;;;2.80;;
50213;SDS011;36103;54.176;12.070;2022-12-10T00:36:56;3.50;;;2.60;;
50213;SDS011;36103;54.176;12.070;2022-12-10T00:37:58;3.40;;;2.70;;
50213;SDS011;36103;54.176;12.070;2022-12-10T00:38:59;3.33;;;2.40;;
50213;SDS011;36103;54.176;12.070;2022-12-10T00:40:02;4.47;;;2.50;;
50213;SDS011;36103;54.176;12.070;2022-12-10T00:41:03;4.27;;;2.67;;
50213;SDS011;36103;54.176;12.070;2022-12-10T00:42:08;3.43;;;2.40;;
50213;SDS011;36103;54.176;12.070;2022-12-10T00:43:08;3.00;;;2.30;;
50213;SDS011;36103;54.176;12.070;2022-12-10T00:44:10;4.13;;;2.73;;
50213;SDS011;36103;54.176;12.070;2022-12-10T00:45:12;3.10;;;2.27;;
50213;SDS011;36103;54.176;12.070;2022-12-10T00:46:14;4.00;;;2.70;;
50213;SDS011;36103;54.176;12.070;2022-12-10T00:47:15;4.10;;;2.80;;
50213;SDS011;36103;54.176;12.070;2022-12-10T00:48:17;3.43;;;2.37;;
50213;SDS011;36103;54.176;12.070;2022-12-10T00:49:17;5.23;;;2.77;;
50213;SDS011;36103;54.176;12.070;2022-12-10T00:50:18;3.40;;;2.70;;
50213;SDS011;36103;54.176;12.070;2022-12-10T00:51:22;5.03;;;2.97;;
50213;SDS011;36103;54.176;12.070;2022-12-10T00:52:25;3.47;;;2.43;;
50213;SDS011;36103;54.176;12.070;2022-12-10T00:53:25;3.90;;;3.07;;
50213;SDS011;36103;54.176;12.070;2022-12-10T00:54:27;3.40;;;2.70;;
50213;SDS011;36103;54.176;12.070;2022-12-10T00:55:29;3.60;;;2.70;;
50213;SDS011;36103;54.176;12.070;2022-12-10T00:56:30;3.67;;;2.47;;
50213;SDS011;36103;54.176;12.070;2022-12-10T00:57:34;3.47;;;2.60;;
50213;SDS011;36103;54.176;12.070;2022-12-10T00:58:36;3.37;;;2.37;;
50213;SDS011;36103;54.176;12.070;2022-12-10T00:59:38;4.10;;;2.30;;
50213;SDS011;36103;54.176;12.070;2022-12-10T01:00:39;3.80;;;2.73;;
50213;SDS011;36103;54.176;12.070;2022-12-10T01:01:40;2.83;;;2.37;;
50213;SDS011;36103;54.176;12.070;2022-12-10T01:02:42;2.80;;;2.43;;
50213;SDS011;36103;54.176;12.070;2022-12-10T01:03:43;3.23;;;2.40;;
50213;SDS011;36103;54.176;12.070;2022-12-10T01:04:45;4.43;;;2.40;;
50213;SDS011;36103;54.176;12.070;2022-12-10T01:05:46;4.67;;;2.60;;
50213;SDS011;36103;54.176;12.070;2022-12-10T01:06:48;3.63;;;2.40;;
50213;SDS011;36103;54.176;12.070;2022-12-10T01:07:50;3.67;;;2.43;;
50213;SDS011;36103;54.176;12.070;2022-12-10T01:08:52;2.97;;;2.60;;
50213;SDS011;36103;54.176;12.070;2022-12-10T01:09:56;4.70;;;2.30;;
50213;SDS011;36103;54.176;12.070;2022-12-10T01:10:56;4.10;;;2.73;;
50213;SDS011;36103;54.176;12.070;2022-12-10T01:11:59;2.50;;;2.10;;
50213;SDS011;36103;54.176;12.070;2022-12-10T01:13:03;3.03;;;2.20;;
50213;SDS011;36103;54.176;12.070;2022-12-10T01:14:05;2.90;;;2.20;;
50213;SDS011;36103;54.176;12.070;2022-12-10T01:15:07;3.63;;;2.30;;
50213;SDS011;36103;54.176;12.070;2022-12-10T01:16:10;3.03;;;2.13;;
50213;SDS011;36103;54.176;12.070;2022-12-10T01:17:11;4.40;;;2.43;;
50213;SDS011;36103;54.176;12.070;2022-12-10T01:18:13;3.77;;;2.43;;
50213;SDS011;36103;54.176;12.070;2022-12-10T01:19:14;2.90;;;2.20;;
50213;SDS011;36103;54.176;12.070;2022-12-10T01:20:16;3.53;;;2.30;;
50213;SDS011;36103;54.176;12.070;2022-12-10T01:21:17;2.60;;;2.30;;
50213;SDS011;36103;54.176;12.070;2022-12-10T01:22:19;2.73;;;2.20;;
50213;SDS011;36103;54.176;12.070;2022-12-10T01:23:20;2.20;;;2.00;;
50213;SDS011;36103;54.176;12.070;2022-12-10T01:24:21;3.10;;;2.40;;
50213;SDS011;36103;54.176;12.070;2022-12-10T01:25:23;2.57;;;1.87;;
50213;SDS011;36103;54.176;12.070;2022-12-10T01:26:24;2.60;;;2.10;;
50213;SDS011;36103;54.176;12.070;2022-12-10T01:27:27;3.47;;;2.50;;
50213;SDS011;36103;54.176;12.070;2022-12-10T01:28:31;3.20;;;2.00;;
50213;SDS011;36103;54.176;12.070;2022-12-10T01:29:33;2.20;;;1.93;;
50213;SDS011;36103;54.176;12.070;2022-12-10T01:30:34;2.40;;;2.10;;
50213;SDS011;36103;54.176;12.070;2022-12-10T01:31:36;3.27;;;2.40;;
50213;SDS011;36103;54.176;12.070;2022-12-10T01:32:39;3.10;;;2.20;;
50213;SDS011;36103;54.176;12.070;2022-12-10T01:33:41;4.10;;;2.50;;
50213;SDS011;36103;54.176;12.070;2022-12-10T01:34:41;2.47;;;1.80;;
50213;SDS011;36103;54.176;12.070;2022-12-10T01:35:43;2.63;;;2.10;;
50213;SDS011;36103;54.176;12.070;2022-12-10T01:36:44;2.60;;;2.03;;
50213;SDS011;36103;54.176;12.070;2022-12-10T01:37:46;3.17;;;2.30;;
50213;SDS011;36103;54.176;12.070;2022-12-10T01:38:46;4.97;;;2.43;;
50213;SDS011;36103;54.176;12.070;2022-12-10T01:39:48;2.30;;;1.83;;
50213;SDS011;36103;54.176;12.070;2022-12-10T01:40:48;2.97;;;2.13;;
50213;SDS011;36103;54.176;12.070;2022-12-10T01:41:51;2.90;;;2.20;;
50213;SDS011;36103;54.176;12.070;2022-12-10T01:42:52;2.47;;;1.90;;
50213;SDS011;36103;54.176;12.070;2022-12-10T01:43:56;3.10;;;1.90;;
50213;SDS011;36103;54.176;12.070;2022-12-10T01:45:03;2.90;;;2.00;;
50213;SDS011;36103;54.176;12.070;2022-12-10T01:46:07;2.60;;;2.03;;
50213;SDS011;36103;54.176;12.070;2022-12-10T01:47:09;2.50;;;1.77;;
50213;SDS011;36103;54.176;12.070;2022-12-10T01:48:10;2.27;;;2.03;;
50213;SDS011;36103;54.176;12.070;2022-12-10T01:49:12;2.83;;;1.97;;
50213;SDS011;36103;54.176;12.070;2022-12-10T01:50:14;2.77;;;2.13;;
50213;SDS011;36103;54.176;12.070;2022-12-10T01:51:15;2.37;;;1.90;;
50213;SDS011;36103;54.176;12.070;2022-12-10T01:52:17;2.53;;;2.07;;
50213;SDS011;36103;54.176;12.070;2022-12-10T01:53:19;3.53;;;2.20;;
50213;SDS011;36103;54.176;12.070;2022-12-10T01:54:23;2.00;;;1.80;;
50213;SDS011;36103;54.176;12.070;2022-12-10T01:55:38;4.70;;;2.37;;
50213;SDS011;36103;54.176;12.070;2022-12-10T01:56:43;3.30;;;2.33;;
50213;SDS011;36103;54.176;12.070;2022-12-10T01:57:45;3.00;;;2.17;;
50213;SDS011;36103;54.176;12.070;2022-12-10T01:58:47;3.87;;;2.17;;
50213;SDS011;36103;54.176;12.070;2022-12-10T01:59:51;2.63;;;2.00;;
50213;SDS011;36103;54.176;12.070;2022-12-10T02:00:59;2.90;;;2.03;;
50213;SDS011;36103;54.176;12.070;2022-12-10T02:02:08;3.13;;;1.90;;
50213;SDS011;36103;54.176;12.070;2022-12-10T02:03:13;2.50;;;1.70;;
50213;SDS011;36103;54.176;12.070;2022-12-10T02:04:15;2.43;;;1.90;;
50213;SDS011;36103;54.176;12.070;2022-12-10T02:05:26;2.77;;;1.80;;
50213;SDS011;36103;54.176;12.070;2022-12-10T02:06:31;2.47;;;2.10;;
50213;SDS011;36103;54.176;12.070;2022-12-10T02:07:44;3.73;;;2.00;;
50213;SDS011;36103;54.176;12.070;2022-12-10T02:08:54;3.63;;;2.03;;
50213;SDS011;36103;54.176;12.070;2022-12-10T02:10:02;3.17;;;1.80;;
50213;SDS011;36103;54.176;12.070;2022-12-10T02:11:10;2.30;;;1.70;;
50213;SDS011;36103;54.176;12.070;2022-12-10T02:12:18;3.07;;;1.90;;
50213;SDS011;36103;54.176;12.070;2022-12-10T02:13:24;3.13;;;1.80;;
50213;SDS011;36103;54.176;12.070;2022-12-10T02:14:28;1.93;;;1.70;;
50213;SDS011;36103;54.176;12.070;2022-12-10T02:15:46;2.17;;;1.50;;
50213;SDS011;36103;54.176;12.070;2022-12-10T02:16:50;3.47;;;2.10;;
50213;SDS011;36103;54.176;12.070;2022-12-10T02:17:57;2.57;;;1.70;;
50213;SDS011;36103;54.176;12.070;2022-12-10T02:19:02;2.50;;;2.00;;
50213;SDS011;36103;54.176;12.070;2022-12-10T02:20:06;2.93;;;2.00;;
50213;SDS011;36103;54.176;12.070;2022-12-10T02:21:09;2.57;;;1.40;;
50213;SDS011;36103;54.176;12.070;2022-12-10T02:22:14;2.10;;;1.90;;
50213;SDS011;36103;54.176;12.070;2022-12-10T02:23:16;2.33;;;1.77;;
50213;SDS011;36103;54.176;12.070;2022-12-10T02:24:21;2.30;;;1.67;;
50213;SDS011;36103;54.176;12.070;2022-12-10T02:25:24;2.57;;;2.03;;
50213;SDS011;36103;54.176;12.070;2022-12-10T02:26:36;3.43;;;2.00;;
50213;SDS011;36103;54.176;12.070;2022-12-10T02:27:44;2.23;;;1.87;;
50213;SDS011;36103;54.176;12.070;2022-12-10T02:28:50;2.50;;;1.73;;
50213;SDS011;36103;54.176;12.070;2022-12-10T02:29:54;2.23;;;2.00;;
50213;SDS011;36103;54.176;12.070;2022-12-10T02:30:57;2.20;;;1.60;;
50213;SDS011;36103;54.176;12.070;2022-12-10T02:32:00;3.30;;;2.13;;
50213;SDS011;36103;54.176;12.070;2022-12-10T02:33:05;2.00;;;1.70;;
50213;SDS011;36103;54.176;12.070;2022-12-10T02:34:06;2.43;;;1.67;;
50213;SDS011;36103;54.176;12.070;2022-12-10T02:35:09;3.70;;;1.70;;
50213;SDS011;36103;54.176;12.070;2022-12-10T02:36:14;2.30;;;1.87;;
50213;SDS011;36103;54.176;12.070;2022-12-10T02:37:17;2.83;;;1.70;;
50213;SDS011;36103;54.176;12.070;2022-12-10T02:38:23;2.00;;;1.50;;
50213;SDS011;36103;54.176;12.070;2022-12-10T02:39:29;2.10;;;1.50;;
50213;SDS011;36103;54.176;12.070;2022-12-10T02:40:33;3.20;;;1.83;;
50213;SDS011;36103;54.176;12.070;2022-12-10T02:41:39;3.23;;;2.03;;
50213;SDS011;36103;54.176;12.070;2022-12-10T02:42:43;1.60;;;1.50;;
50213;SDS011;36103;54.176;12.070;2022-12-10T02:43:46;1.97;;;1.60;;
50213;SDS011;36103;54.176;12.070;2022-12-10T02:44:48;2.83;;;1.90;;
50213;SDS011;36103;54.176;12.070;2022-12-10T02:45:55;2.47;;;1.60;;
50213;SDS011;36103;54.176;12.070;2022-12-10T02:46:57;1.87;;;1.60;;
50213;SDS011;36103;54.176;12.070;2022-12-10T02:48:04;2.30;;;1.50;;
50213;SDS011;36103;54.176;12.070;2022-12-10T02:49:11;1.73;;;1.63;;
50213;SDS011;36103;54.176;12.070;2022-12-10T02:50:14;2.57;;;1.83;;
50213;SDS011;36103;54.176;12.070;2022-12-10T02:51:16;1.63;;;1.53;;
50213;SDS011;36103;54.176;12.070;2022-12-10T02:52:18;1.60;;;1.50;;
50213;SDS011;36103;54.176;12.070;2022-12-10T02:53:23;2.10;;;1.60;;
50213;SDS011;36103;54.176;12.070;2022-12-10T02:54:33;1.80;;;1.60;;
50213;SDS011;36103;54.176;12.070;2022-12-10T02:55:40;3.13;;;1.80;;
50213;SDS011;36103;54.176;12.070;2022-12-10T02:56:50;1.60;;;1.50;;
50213;SDS011;36103;54.176;12.070;2022-12-10T02:57:58;1.70;;;1.33;;
50213;SDS011;36103;54.176;12.070;2022-12-10T02:59:07;2.00;;;1.50;;
50213;SDS011;36103;54.176;12.070;2022-12-10T03:00:16;1.70;;;1.60;;
50213;SDS011;36103;54.176;12.070;2022-12-10T03:01:33;2.13;;;1.70;;
50213;SDS011;36103;54.176;12.070;2022-12-10T03:02:40;1.90;;;1.60;;
50213;SDS011;36103;54.176;12.070;2022-12-10T03:03:48;1.83;;;1.40;;
50213;SDS011;36103;54.176;12.070;2022-12-10T03:04:51;3.13;;;1.80;;
50213;SDS011;36103;54.176;12.070;2022-12-10T03:05:58;2.43;;;1.90;;
50213;SDS011;36103;54.176;12.070;2022-12-10T03:07:06;1.73;;;1.43;;
50213;SDS011;36103;54.176;12.070;2022-12-10T03:08:14;1.40;;;1.30;;
50213;SDS011;36103;54.176;12.070;2022-12-10T03:09:17;1.83;;;1.40;;
50213;SDS011;36103;54.176;12.070;2022-12-10T03:10:24;1.97;;;1.53;;
50213;SDS011;36103;54.176;12.070;2022-12-10T03:11:26;2.20;;;1.60;;
50213;SDS011;36103;54.176;12.070;2022-12-10T03:12:29;2.27;;;1.80;;
50213;SDS011;36103;54.176;12.070;2022-12-10T03:13:35;1.80;;;1.60;;
50213;SDS011;36103;54.176;12.070;2022-12-10T03:14:38;1.73;;;1.63;;
50213;SDS011;36103;54.176;12.070;2022-12-10T03:15:40;1.83;;;1.53;;
50213;SDS011;36103;54.176;12.070;2022-12-10T03:16:46;2.33;;;1.50;;
50213;SDS011;36103;54.176;12.070;2022-12-10T03:17:49;2.67;;;1.50;;
50213;SDS011;36103;54.176;12.070;2022-12-10T03:18:55;2.00;;;1.57;;
50213;SDS011;36103;54.176;12.070;2022-12-10T03:19:56;2.10;;;1.40;;
50213;SDS011;36103;54.176;12.070;2022-12-10T03:20:59;1.70;;;1.47;;
50213;SDS011;36103;54.176;12.070;2022-12-10T03:22:05;2.40;;;1.60;;
50213;SDS011;36103;54.176;12.070;2022-12-10T03:23:09;1.50;;;1.40;;
50213;SDS011;36103;54.176;12.070;2022-12-10T03:24:11;2.57;;;1.50;;
50213;SDS011;36103;54.176;12.070;2022-12-10T03:25:13;1.77;;;1.37;;
50213;SDS011;36103;54.176;12.070;2022-12-10T03:26:14;1.93;;;1.67;;
50213;SDS011;36103;54.176;12.070;2022-12-10T03:27:16;1.67;;;1.57;;
50213;SDS011;36103;54.176;12.070;2022-12-10T03:28:19;1.70;;;1.60;;
50213;SDS011;36103;54.176;12.070;2022-12-10T03:29:22;1.53;;;1.43;;
50213;SDS011;36103;54.176;12.070;2022-12-10T03:30:24;2.10;;;1.63;;
50213;SDS011;36103;54.176;12.070;2022-12-10T03:31:26;1.40;;;1.30;;
50213;SDS011;36103;54.176;12.070;2022-12-10T03:32:28;2.10;;;1.60;;
50213;SDS011;36103;54.176;12.070;2022-12-10T03:33:30;2.10;;;1.60;;
50213;SDS011;36103;54.176;12.070;2022-12-10T03:34:32;1.40;;;1.30;;
50213;SDS011;36103;54.176;12.070;2022-12-10T03:35:33;1.50;;;1.40;;
50213;SDS011;36103;54.176;12.070;2022-12-10T03:36:34;2.27;;;1.60;;
50213;SDS011;36103;54.176;12.070;2022-12-10T03:37:36;1.57;;;1.40;;
50213;SDS011;36103;54.176;12.070;2022-12-10T03:38:36;2.27;;;1.47;;
50213;SDS011;36103;54.176;12.070;2022-12-10T03:39:38;1.80;;;1.50;;
50213;SDS011;36103;54.176;12.070;2022-12-10T03:40:40;1.60;;;1.50;;
50213;SDS011;36103;54.176;12.070;2022-12-10T03:41:42;1.50;;;1.40;;
50213;SDS011;36103;54.176;12.070;2022-12-10T03:42:43;1.47;;;1.37;;
50213;SDS011;36103;54.176;12.070;2022-12-10T03:43:51;1.50;;;1.30;;
50213;SDS011;36103;54.176;12.070;2022-12-10T03:44:53;1.43;;;1.33;;
50213;SDS011;36103;54.176;12.070;2022-12-10T03:45:53;3.20;;;1.60;;
50213;SDS011;36103;54.176;12.070;2022-12-10T03:46:55;1.73;;;1.50;;
50213;SDS011;36103;54.176;12.070;2022-12-10T03:47:57;2.17;;;1.60;;
50213;SDS011;36103;54.176;12.070;2022-12-10T03:48:59;1.67;;;1.57;;
50213;SDS011;36103;54.176;12.070;2022-12-10T03:50:00;1.40;;;1.30;;
50213;SDS011;36103;54.176;12.070;2022-12-10T03:51:01;1.70;;;1.43;;
50213;SDS011;36103;54.176;12.070;2022-12-10T03:52:02;1.30;;;1.20;;
50213;SDS011;36103;54.176;12.070;2022-12-10T03:53:04;1.40;;;1.30;;
50213;SDS011;36103;54.176;12.070;2022-12-10T03:54:04;1.73;;;1.30;;
50213;SDS011;36103;54.176;12.070;2022-12-10T03:55:06;1.80;;;1.23;;
50213;SDS011;36103;54.176;12.070;2022-12-10T03:56:07;1.40;;;1.20;;
50213;SDS011;36103;54.176;12.070;2022-12-10T03:57:09;1.60;;;1.37;;
50213;SDS011;36103;54.176;12.070;2022-12-10T03:58:09;2.30;;;1.70;;
50213;SDS011;36103;54.176;12.070;2022-12-10T03:59:10;2.07;;;1.53;;
50213;SDS011;36103;54.176;12.070;2022-12-10T04:00:11;1.53;;;1.30;;
50213;SDS011;36103;54.176;12.070;2022-12-10T04:01:13;1.57;;;1.40;;
50213;SDS011;36103;54.176;12.070;2022-12-10T04:02:14;2.27;;;1.47;;
50213;SDS011;36103;54.176;12.070;2022-12-10T04:03:17;1.60;;;1.50;;
50213;SDS011;36103;54.176;12.070;2022-12-10T04:04:17;1.30;;;1.20;;
50213;SDS011;36103;54.176;12.070;2022-12-10T04:05:19;1.43;;;1.30;;
50213;SDS011;36103;54.176;12.070;2022-12-10T04:06:19;1.73;;;1.30;;
50213;SDS011;36103;54.176;12.070;2022-12-10T04:07:21;2.30;;;1.50;;
50213;SDS011;36103;54.176;12.070;2022-12-10T04:08:21;1.63;;;1.33;;
50213;SDS011;36103;54.176;12.070;2022-12-10T04:09:23;1.37;;;1.20;;
50213;SDS011;36103;54.176;12.070;2022-12-10T04:10:23;1.40;;;1.30;;
50213;SDS011;36103;54.176;12.070;2022-12-10T04:11:26;1.47;;;1.20;;
50213;SDS011;36103;54.176;12.070;2022-12-10T04:12:26;1.37;;;1.27;;
50213;SDS011;36103;54.176;12.070;2022-12-10T04:13:30;1.77;;;1.40;;
50213;SDS011;36103;54.176;12.070;2022-12-10T04:14:50;1.20;;;1.10;;
50213;SDS011;36103;54.176;12.070;2022-12-10T04:16:08;2.10;;;1.60;;
50213;SDS011;36103;54.176;12.070;2022-12-10T04:17:27;1.70;;;1.40;;
50213;SDS011;36103;54.176;12.070;2022-12-10T04:18:30;2.00;;;1.20;;
50213;SDS011;36103;54.176;12.070;2022-12-10T04:19:30;1.63;;;1.30;;
50213;SDS011;36103;54.176;12.070;2022-12-10T04:20:31;1.50;;;1.30;;
50213;SDS011;36103;54.176;12.070;2022-12-10T04:21:51;1.87;;;1.30;;
50213;SDS011;36103;54.176;12.070;2022-12-10T04:23:10;2.27;;;1.63;;
50213;SDS011;36103;54.176;12.070;2022-12-10T04:24:30;1.37;;;1.27;;
50213;SDS011;36103;54.176;12.070;2022-12-10T04:26:05;1.57;;;1.47;;
50213;SDS011;36103;54.176;12.070;2022-12-10T04:27:25;1.57;;;1.47;;
50213;SDS011;36103;54.176;12.070;2022-12-10T04:28:28;1.80;;;1.60;;
50213;SDS011;36103;54.176;12.070;2022-12-10T04:29:29;1.87;;;1.40;;
50213;SDS011;36103;54.176;12.070;2022-12-10T04:30:31;1.60;;;1.37;;
50213;SDS011;36103;54.176;12.070;2022-12-10T04:31:31;1.63;;;1.40;;
50213;SDS011;36103;54.176;12.070;2022-12-10T04:32:32;1.57;;;1.30;;
50213;SDS011;36103;54.176;12.070;2022-12-10T04:33:35;1.30;;;1.20;;
50213;SDS011;36103;54.176;12.070;2022-12-10T04:34:36;2.47;;;1.50;;
50213;SDS011;36103;54.176;12.070;2022-12-10T04:35:37;2.07;;;1.20;;
50213;SDS011;36103;54.176;12.070;2022-12-10T04:36:38;1.60;;;1.50;;
50213;SDS011;36103;54.176;12.070;2022-12-10T04:37:39;1.80;;;1.20;;
50213;SDS011;36103;54.176;12.070;2022-12-10T04:38:41;1.90;;;1.10;;
50213;SDS011;36103;54.176;12.070;2022-12-10T04:39:42;1.37;;;1.20;;
50213;SDS011;36103;54.176;12.070;2022-12-10T04:40:42;1.93;;;1.57;;
50213;SDS011;36103;54.176;12.070;2022-12-10T04:41:45;1.67;;;1.30;;
50213;SDS011;36103;54.176;12.070;2022-12-10T04:42:46;2.57;;;1.17;;
50213;SDS011;36103;54.176;12.070;2022-12-10T04:43:47;2.03;;;1.20;;
50213;SDS011;36103;54.176;12.070;2022-12-10T04:44:48;1.27;;;1.17;;
50213;SDS011;36103;54.176;12.070;2022-12-10T04:45:49;1.47;;;1.10;;
50213;SDS011;36103;54.176;12.070;2022-12-10T04:46:50;1.40;;;1.30;;
50213;SDS011;36103;54.176;12.070;2022-12-10T04:47:51;1.30;;;1.13;;
50213;SDS011;36103;54.176;12.070;2022-12-10T04:48:53;1.23;;;1.13;;
50213;SDS011;36103;54.176;12.070;2022-12-10T04:49:55;1.37;;;1.20;;
50213;SDS011;36103;54.176;12.070;2022-12-10T04:50:55;1.60;;;1.30;;
50213;SDS011;36103;54.176;12.070;2022-12-10T04:51:57;1.40;;;1.30;;
50213;SDS011;36103;54.176;12.070;2022-12-10T04:52:57;1.50;;;1.30;;
50213;SDS011;36103;54.176;12.070;2022-12-10T04:53:59;1.53;;;1.40;;
50213;SDS011;36103;54.176;12.070;2022-12-10T04:54:59;1.70;;;1.40;;
50213;SDS011;36103;54.176;12.070;2022-12-10T04:56:01;1.97;;;1.40;;
50213;SDS011;36103;54.176;12.070;2022-12-10T04:57:01;1.30;;;1.20;;
50213;SDS011;36103;54.176;12.070;2022-12-10T04:58:03;1.83;;;1.30;;
50213;SDS011;36103;54.176;12.070;2022-12-10T04:59:03;1.80;;;1.03;;
50213;SDS011;36103;54.176;12.070;2022-12-10T05:00:06;1.10;;;1.00;;
50213;SDS011;36103;54.176;12.070;2022-12-10T05:01:08;1.80;;;1.20;;
50213;SDS011;36103;54.176;12.070;2022-12-10T05:02:11;2.23;;;1.40;;
50213;SDS011;36103;54.176;12.070;2022-12-10T05:03:12;1.83;;;1.50;;
50213;SDS011;36103;54.176;12.070;2022-12-10T05:04:16;1.40;;;1.30;;
50213;SDS011;36103;54.176;12.070;2022-12-10T05:05:18;1.33;;;1.10;;
50213;SDS011;36103;54.176;12.070;2022-12-10T05:06:19;1.40;;;1.10;;
50213;SDS011;36103;54.176;12.070;2022-12-10T05:07:20;1.40;;;1.30;;
50213;SDS011;36103;54.176;12.070;2022-12-10T05:08:21;1.37;;;1.13;;
50213;SDS011;36103;54.176;12.070;2022-12-10T05:09:23;1.20;;;1.10;;
50213;SDS011;36103;54.176;12.070;2022-12-10T05:10:24;1.43;;;1.30;;
50213;SDS011;36103;54.176;12.070;2022-12-10T05:11:26;1.10;;;1.00;;
50213;SDS011;36103;54.176;12.070;2022-12-10T05:12:28;1.93;;;1.30;;
50213;SDS011;36103;54.176;12.070;2022-12-10T05:13:29;1.07;;;1.03;;
50213;SDS011;36103;54.176;12.070;2022-12-10T05:14:30;1.43;;;1.23;;
50213;SDS011;36103;54.176;12.070;2022-12-10T05:15:31;1.23;;;1.13;;
50213;SDS011;36103;54.176;12.070;2022-12-10T05:16:32;1.97;;;1.40;;
50213;SDS011;36103;54.176;12.070;2022-12-10T05:17:34;1.30;;;1.20;;
50213;SDS011;36103;54.176;12.070;2022-12-10T05:18:36;1.30;;;1.20;;
50213;SDS011;36103;54.176;12.070;2022-12-10T05:19:39;1.30;;;1.20;;
50213;SDS011;36103;54.176;12.070;2022-12-10T05:20:39;1.23;;;1.13;;
50213;SDS011;36103;54.176;12.070;2022-12-10T05:21:40;1.30;;;1.20;;
50213;SDS011;36103;54.176;12.070;2022-12-10T05:22:59;1.20;;;1.10;;
50213;SDS011;36103;54.176;12.070;2022-12-10T05:24:18;1.40;;;1.30;;
50213;SDS011;36103;54.176;12.070;2022-12-10T05:25:18;1.13;;;1.03;;
50213;SDS011;36103;54.176;12.070;2022-12-10T05:26:20;1.40;;;1.30;;
50213;SDS011;36103;54.176;12.070;2022-12-10T05:27:22;1.40;;;1.30;;
50213;SDS011;36103;54.176;12.070;2022-12-10T05:28:24;1.40;;;1.20;;
50213;SDS011;36103;54.176;12.070;2022-12-10T05:29:25;1.43;;;1.30;;
50213;SDS011;36103;54.176;12.070;2022-12-10T05:30:26;1.20;;;1.10;;
50213;SDS011;36103;54.176;12.070;2022-12-10T05:31:28;1.70;;;1.20;;
50213;SDS011;36103;54.176;12.070;2022-12-10T05:32:30;1.30;;;1.20;;
50213;SDS011;36103;54.176;12.070;2022-12-10T05:33:30;1.57;;;1.40;;
50213;SDS011;36103;54.176;12.070;2022-12-10T05:34:32;1.30;;;1.20;;
50213;SDS011;36103;54.176;12.070;2022-12-10T05:35:34;1.27;;;1.10;;
50213;SDS011;36103;54.176;12.070;2022-12-10T05:36:35;1.40;;;1.30;;
50213;SDS011;36103;54.176;12.070;2022-12-10T05:37:36;1.93;;;1.47;;
50213;SDS011;36103;54.176;12.070;2022-12-10T05:38:37;1.57;;;1.30;;
50213;SDS011;36103;54.176;12.070;2022-12-10T05:39:38;1.67;;;1.20;;
50213;SDS011;36103;54.176;12.070;2022-12-10T05:40:40;1.50;;;1.33;;
50213;SDS011;36103;54.176;12.070;2022-12-10T05:41:40;1.33;;;1.23;;
50213;SDS011;36103;54.176;12.070;2022-12-10T05:42:43;1.23;;;1.13;;
50213;SDS011;36103;54.176;12.070;2022-12-10T05:43:44;1.50;;;1.30;;
50213;SDS011;36103;54.176;12.070;2022-12-10T05:44:46;1.30;;;1.20;;
50213;SDS011;36103;54.176;12.070;2022-12-10T05:45:46;1.30;;;1.20;;
50213;SDS011;36103;54.176;12.070;2022-12-10T05:46:48;1.30;;;1.20;;
50213;SDS011;36103;54.176;12.070;2022-12-10T05:47:48;1.20;;;1.10;;
50213;SDS011;36103;54.176;12.070;2022-12-10T05:48:50;1.40;;;1.30;;
50213;SDS011;36103;54.176;12.070;2022-12-10T05:49:51;1.53;;;1.27;;
50213;SDS011;36103;54.176;12.070;2022-12-10T05:50:53;1.30;;;1.20;;
50213;SDS011;36103;54.176;12.070;2022-12-10T05:51:54;1.30;;;1.20;;
50213;SDS011;36103;54.176;12.070;2022-12-10T05:52:56;1.30;;;1.20;;
50213;SDS011;36103;54.176;12.070;2022-12-10T05:53:57;1.50;;;1.30;;
50213;SDS011;36103;54.176;12.070;2022-12-10T05:54:59;1.20;;;1.10;;
50213;SDS011;36103;54.176;12.070;2022-12-10T05:56:00;2.13;;;1.30;;
50213;SDS011;36103;54.176;12.070;2022-12-10T05:57:02;1.50;;;1.30;;
50213;SDS011;36103;54.176;12.070;2022-12-10T05:58:02;1.37;;;1.27;;
50213;SDS011;36103;54.176;12.070;2022-12-10T05:59:04;1.40;;;1.30;;
50213;SDS011;36103;54.176;12.070;2022-12-10T06:00:05;1.43;;;1.33;;
50213;SDS011;36103;54.176;12.070;2022-12-10T06:01:13;1.50;;;1.40;;
50213;SDS011;36103;54.176;12.070;2022-12-10T06:02:14;1.73;;;1.33;;
50213;SDS011;36103;54.176;12.070;2022-12-10T06:03:17;1.43;;;1.33;;
50213;SDS011;36103;54.176;12.070;2022-12-10T06:04:17;1.60;;;1.50;;
50213;SDS011;36103;54.176;12.070;2022-12-10T06:05:19;1.40;;;1.30;;
50213;SDS011;36103;54.176;12.070;2022-12-10T06:06:21;1.33;;;1.23;;
50213;SDS011;36103;54.176;12.070;2022-12-10T06:07:23;1.37;;;1.23;;
50213;SDS011;36103;54.176;12.070;2022-12-10T06:08:24;1.97;;;1.57;;
50213;SDS011;36103;54.176;12.070;2022-12-10T06:09:25;1.47;;;1.37;;
50213;SDS011;36103;54.176;12.070;2022-12-10T06:10:26;1.47;;;1.37;;
50213;SDS011;36103;54.176;12.070;2022-12-10T06:11:27;1.40;;;1.30;;
50213;SDS011;36103;54.176;12.070;2022-12-10T06:12:28;1.20;;;1.10;;
50213;SDS011;36103;54.176;12.070;2022-12-10T06:13:29;1.50;;;1.40;;
50213;SDS011;36103;54.176;12.070;2022-12-10T06:14:29;1.53;;;1.43;;